sensor_id;sensor_type;location;lat;lon;timestamp;pressure;altitude;pressure_sealevel;temperature;humidity
67015;BME280;1033;52.560;13.374;2022-09-03T00:00:02;101403.22;;;13.83;57.94
67015;BME280;1033;52.560;13.374;2022-09-03T00:02:42;101400.72;;;13.88;57.65
67015;BME280;1033;52.560;13.374;2022-09-03T00:05:20;101407.41;;;13.85;57.91
67015;BME280;1033;52.560;13.374;2022-09-03T00:08:02;101401.56;;;13.88;57.54
67015;BME280;1033;52.560;13.374;2022-09-03T00:10:45;101406.16;;;13.88;57.51
67015;BME280;1033;52.560;13.374;2022-09-03T00:13:23;101399.66;;;13.96;57.29
67015;BME280;1033;52.560;13.374;2022-09-03T00:15:56;101403.44;;;13.88;57.59
67015;BME280;1033;52.560;13.374;2022-09-03T00:18:31;101392.75;;;13.86;57.60
67015;BME280;1033;52.560;13.374;2022-09-03T00:21:08;101406.16;;;13.88;57.55
67015;BME280;1033;52.560;13.374;2022-09-03T00:23:41;101400.69;;;13.94;57.27
67015;BME280;1033;52.560;13.374;2022-09-03T00:26:28;101405.72;;;13.91;57.58
67015;BME280;1033;52.560;13.374;2022-09-03T00:29:08;101402.16;;;13.90;57.36
67015;BME280;1033;52.560;13.374;2022-09-03T00:31:44;101397.56;;;13.91;57.65
67015;BME280;1033;52.560;13.374;2022-09-03T00:34:23;101394.63;;;13.86;57.63
67015;BME280;1033;52.560;13.374;2022-09-03T00:36:56;101396.09;;;13.75;57.76
67015;BME280;1033;52.560;13.374;2022-09-03T00:39:27;101402.81;;;13.79;58.03
67015;BME280;1033;52.560;13.374;2022-09-03T00:45:16;101397.38;;;13.79;57.62
67015;BME280;1033;52.560;13.374;2022-09-03T00:48:08;101390.91;;;13.74;58.11
67015;BME280;1033;52.560;13.374;2022-09-03T00:51:04;101394.47;;;13.74;58.13
67015;BME280;1033;52.560;13.374;2022-09-03T00:53:51;101395.25;;;13.75;57.94
67015;BME280;1033;52.560;13.374;2022-09-03T00:56:36;101399.47;;;13.71;58.14
67015;BME280;1033;52.560;13.374;2022-09-03T00:59:22;101389.66;;;13.70;58.25
67015;BME280;1033;52.560;13.374;2022-09-03T01:02:05;101392.78;;;13.67;58.27
67015;BME280;1033;52.560;13.374;2022-09-03T01:04:56;101389.25;;;13.60;58.69
67015;BME280;1033;52.560;13.374;2022-09-03T01:07:39;101388.19;;;13.47;59.12
67015;BME280;1033;52.560;13.374;2022-09-03T01:10:24;101390.69;;;13.49;59.10
67015;BME280;1033;52.560;13.374;2022-09-03T01:13:03;101375.22;;;13.49;58.91
67015;BME280;1033;52.560;13.374;2022-09-03T01:15:44;101385.69;;;13.39;59.44
67015;BME280;1033;52.560;13.374;2022-09-03T01:18:27;101381.91;;;13.40;59.41
67015;BME280;1033;52.560;13.374;2022-09-03T01:21:38;101381.50;;;13.30;59.71
67015;BME280;1033;52.560;13.374;2022-09-03T01:25:00;101380.25;;;13.26;59.82
67015;BME280;1033;52.560;13.374;2022-09-03T01:30:23;101373.09;;;13.12;60.67
67015;BME280;1033;52.560;13.374;2022-09-03T01:32:59;101370.59;;;13.17;60.34
67015;BME280;1033;52.560;13.374;2022-09-03T01:35:44;101367.22;;;13.08;60.44
67015;BME280;1033;52.560;13.374;2022-09-03T01:38:26;101362.63;;;13.09;60.75
67015;BME280;1033;52.560;13.374;2022-09-03T01:41:10;101364.31;;;13.10;60.48
67015;BME280;1033;52.560;13.374;2022-09-03T01:44:10;101365.59;;;13.14;60.32
67015;BME280;1033;52.560;13.374;2022-09-03T01:46:51;101360.94;;;13.08;60.59
67015;BME280;1033;52.560;13.374;2022-09-03T01:49:33;101364.50;;;13.02;60.71
67015;BME280;1033;52.560;13.374;2022-09-03T01:52:13;101364.69;;;13.07;60.71
67015;BME280;1033;52.560;13.374;2022-09-03T01:54:57;101364.28;;;12.97;60.88
67015;BME280;1033;52.560;13.374;2022-09-03T01:57:47;101369.53;;;13.05;60.85
67015;BME280;1033;52.560;13.374;2022-09-03T02:00:19;101377.00;;;12.90;61.33
67015;BME280;1033;52.560;13.374;2022-09-03T02:02:52;101379.09;;;12.88;61.27
67015;BME280;1033;52.560;13.374;2022-09-03T02:05:23;101373.88;;;12.86;61.39
67015;BME280;1033;52.560;13.374;2022-09-03T02:07:59;101374.69;;;12.80;61.58
67015;BME280;1033;52.560;13.374;2022-09-03T02:10:33;101370.31;;;12.86;61.36
67015;BME280;1033;52.560;13.374;2022-09-03T02:13:09;101373.84;;;12.80;61.62
67015;BME280;1033;52.560;13.374;2022-09-03T02:15:43;101375.94;;;12.78;61.54
67015;BME280;1033;52.560;13.374;2022-09-03T02:18:18;101380.31;;;12.79;61.63
67015;BME280;1033;52.560;13.374;2022-09-03T02:20:49;101375.50;;;12.74;61.78
67015;BME280;1033;52.560;13.374;2022-09-03T02:23:19;101375.88;;;12.64;62.10
67015;BME280;1033;52.560;13.374;2022-09-03T02:25:57;101379.22;;;12.53;62.41
67015;BME280;1033;52.560;13.374;2022-09-03T02:28:28;101382.34;;;12.63;62.26
67015;BME280;1033;52.560;13.374;2022-09-03T02:30:58;101381.31;;;12.64;62.13
67015;BME280;1033;52.560;13.374;2022-09-03T02:33:30;101383.81;;;12.59;62.37
67015;BME280;1033;52.560;13.374;2022-09-03T02:36:00;101383.56;;;12.54;62.57
67015;BME280;1033;52.560;13.374;2022-09-03T02:38:31;101377.13;;;12.55;62.60
67015;BME280;1033;52.560;13.374;2022-09-03T02:41:00;101373.13;;;12.51;62.62
67015;BME280;1033;52.560;13.374;2022-09-03T02:43:36;101377.09;;;12.49;62.62
67015;BME280;1033;52.560;13.374;2022-09-03T02:46:12;101378.97;;;12.48;62.84
67015;BME280;1033;52.560;13.374;2022-09-03T02:48:45;101377.91;;;12.49;62.83
67015;BME280;1033;52.560;13.374;2022-09-03T02:51:14;101373.31;;;12.43;62.94
67015;BME280;1033;52.560;13.374;2022-09-03T02:53:43;101373.94;;;12.39;63.14
67015;BME280;1033;52.560;13.374;2022-09-03T02:56:12;101370.16;;;12.33;63.33
67015;BME280;1033;52.560;13.374;2022-09-03T02:58:41;101379.50;;;12.31;63.28
67015;BME280;1033;52.560;13.374;2022-09-03T03:01:10;101377.47;;;12.39;62.94
67015;BME280;1033;52.560;13.374;2022-09-03T03:03:52;101377.47;;;12.39;62.87
67015;BME280;1033;52.560;13.374;2022-09-03T03:06:21;101373.66;;;12.27;63.38
67015;BME280;1033;52.560;13.374;2022-09-03T03:08:50;101377.84;;;12.30;63.27
67015;BME280;1033;52.560;13.374;2022-09-03T03:11:22;101374.31;;;12.29;63.33
67015;BME280;1033;52.560;13.374;2022-09-03T03:13:52;101375.72;;;12.25;63.35
67015;BME280;1033;52.560;13.374;2022-09-03T03:16:21;101371.56;;;12.23;63.31
67015;BME280;1033;52.560;13.374;2022-09-03T03:18:51;101368.66;;;12.24;63.45
67015;BME280;1033;52.560;13.374;2022-09-03T03:21:20;101374.47;;;12.21;63.41
67015;BME280;1033;52.560;13.374;2022-09-03T03:23:49;101366.78;;;12.25;63.18
67015;BME280;1033;52.560;13.374;2022-09-03T03:26:20;101374.88;;;12.18;63.48
67015;BME280;1033;52.560;13.374;2022-09-03T03:28:55;101374.88;;;12.18;63.35
67015;BME280;1033;52.560;13.374;2022-09-03T03:31:25;101377.78;;;12.16;63.26
67015;BME280;1033;52.560;13.374;2022-09-03T03:33:58;101379.22;;;12.12;63.46
67015;BME280;1033;52.560;13.374;2022-09-03T03:36:30;101388.38;;;12.05;63.72
67015;BME280;1033;52.560;13.374;2022-09-03T03:39:00;101384.59;;;12.06;63.79
67015;BME280;1033;52.560;13.374;2022-09-03T03:41:33;101388.50;;;11.97;64.10
67015;BME280;1033;52.560;13.374;2022-09-03T03:44:05;101383.06;;;11.90;64.48
67015;BME280;1033;52.560;13.374;2022-09-03T03:46:37;101388.03;;;11.87;64.58
67015;BME280;1033;52.560;13.374;2022-09-03T03:49:08;101400.56;;;11.88;64.80
67015;BME280;1033;52.560;13.374;2022-09-03T03:51:38;101395.63;;;11.98;64.61
67015;BME280;1033;52.560;13.374;2022-09-03T03:54:07;101390.56;;;11.88;64.84
67015;BME280;1033;52.560;13.374;2022-09-03T03:56:35;101391.19;;;11.90;64.73
67015;BME280;1033;52.560;13.374;2022-09-03T03:59:04;101392.72;;;11.99;64.64
67015;BME280;1033;52.560;13.374;2022-09-03T04:01:33;101392.72;;;11.99;64.50
67015;BME280;1033;52.560;13.374;2022-09-03T04:04:02;101389.00;;;12.07;64.17
67015;BME280;1033;52.560;13.374;2022-09-03T04:06:33;101389.41;;;12.10;63.81
67015;BME280;1033;52.560;13.374;2022-09-03T04:09:02;101389.88;;;12.14;63.98
67015;BME280;1033;52.560;13.374;2022-09-03T04:11:30;101388.84;;;12.15;63.95
67015;BME280;1033;52.560;13.374;2022-09-03T04:14:01;101378.13;;;12.07;64.20
67015;BME280;1033;52.560;13.374;2022-09-03T04:16:31;101379.03;;;12.14;64.08
67015;BME280;1033;52.560;13.374;2022-09-03T04:19:00;101385.97;;;12.23;63.66
67015;BME280;1033;52.560;13.374;2022-09-03T04:21:30;101384.94;;;12.31;63.43
67015;BME280;1033;52.560;13.374;2022-09-03T04:24:02;101384.31;;;12.29;63.71
67015;BME280;1033;52.560;13.374;2022-09-03T04:26:33;101388.72;;;12.36;63.31
67015;BME280;1033;52.560;13.374;2022-09-03T04:29:04;101383.25;;;12.30;63.79
67015;BME280;1033;52.560;13.374;2022-09-03T04:31:36;101382.69;;;12.41;63.47
67015;BME280;1033;52.560;13.374;2022-09-03T04:34:06;101393.75;;;12.39;63.50
67015;BME280;1033;52.560;13.374;2022-09-03T04:36:36;101385.78;;;12.31;64.10
67015;BME280;1033;52.560;13.374;2022-09-03T04:39:06;101380.34;;;12.31;64.02
67015;BME280;1033;52.560;13.374;2022-09-03T04:41:34;101379.75;;;12.29;64.47
67015;BME280;1033;52.560;13.374;2022-09-03T04:44:04;101385.59;;;12.39;64.19
67015;BME280;1033;52.560;13.374;2022-09-03T04:46:32;101382.91;;;12.46;63.99
67015;BME280;1033;52.560;13.374;2022-09-03T04:49:01;101379.59;;;12.50;64.03
67015;BME280;1033;52.560;13.374;2022-09-03T04:51:30;101383.41;;;12.62;64.00
67015;BME280;1033;52.560;13.374;2022-09-03T04:54:01;101381.31;;;12.58;64.23
67015;BME280;1033;52.560;13.374;2022-09-03T04:56:34;101386.81;;;12.78;63.86
67015;BME280;1033;52.560;13.374;2022-09-03T04:59:05;101382.13;;;13.45;62.05
67015;BME280;1033;52.560;13.374;2022-09-03T05:01:37;101393.06;;;14.29;59.21
67015;BME280;1033;52.560;13.374;2022-09-03T05:04:07;101382.09;;;15.00;57.12
67015;BME280;1033;52.560;13.374;2022-09-03T05:06:36;101393.81;;;15.63;55.34
67015;BME280;1033;52.560;13.374;2022-09-03T05:09:05;101394.69;;;15.82;54.83
67015;BME280;1033;52.560;13.374;2022-09-03T05:11:36;101390.47;;;14.99;56.72
67015;BME280;1033;52.560;13.374;2022-09-03T05:14:05;101393.50;;;14.26;59.28
67015;BME280;1033;52.560;13.374;2022-09-03T05:16:38;101398.19;;;13.93;60.37
67015;BME280;1033;52.560;13.374;2022-09-03T05:19:07;101396.34;;;13.54;61.73
67015;BME280;1033;52.560;13.374;2022-09-03T05:21:37;101396.56;;;13.39;62.42
67015;BME280;1033;52.560;13.374;2022-09-03T05:24:06;101401.13;;;13.32;62.92
67015;BME280;1033;52.560;13.374;2022-09-03T05:26:38;101402.81;;;13.20;63.50
67015;BME280;1033;52.560;13.374;2022-09-03T05:29:08;101392.13;;;13.12;64.09
67015;BME280;1033;52.560;13.374;2022-09-03T05:31:38;101398.97;;;13.08;64.20
67015;BME280;1033;52.560;13.374;2022-09-03T05:34:07;101403.38;;;13.09;64.83
67015;BME280;1033;52.560;13.374;2022-09-03T05:36:42;101390.03;;;13.14;64.82
67015;BME280;1033;52.560;13.374;2022-09-03T05:39:15;101395.47;;;13.14;64.76
67015;BME280;1033;52.560;13.374;2022-09-03T05:41:45;101398.41;;;13.19;64.81
67015;BME280;1033;52.560;13.374;2022-09-03T05:44:19;101397.81;;;13.30;64.56
67015;BME280;1033;52.560;13.374;2022-09-03T05:46:50;101395.69;;;13.32;64.63
67015;BME280;1033;52.560;13.374;2022-09-03T05:49:19;101398.22;;;13.34;64.76
67015;BME280;1033;52.560;13.374;2022-09-03T05:51:48;101396.94;;;13.36;64.72
67015;BME280;1033;52.560;13.374;2022-09-03T05:54:17;101393.00;;;13.39;64.82
67015;BME280;1033;52.560;13.374;2022-09-03T05:56:47;101402.00;;;13.39;64.60
67015;BME280;1033;52.560;13.374;2022-09-03T05:59:16;101399.06;;;13.47;64.77
67015;BME280;1033;52.560;13.374;2022-09-03T06:01:45;101399.69;;;13.49;64.56
67015;BME280;1033;52.560;13.374;2022-09-03T06:04:19;101395.28;;;13.62;64.31
67015;BME280;1033;52.560;13.374;2022-09-03T06:06:48;101403.66;;;13.67;64.47
67015;BME280;1033;52.560;13.374;2022-09-03T06:09:20;101399.03;;;13.61;64.67
67015;BME280;1033;52.560;13.374;2022-09-03T06:11:52;101403.22;;;13.83;64.33
67015;BME280;1033;52.560;13.374;2022-09-03T06:14:24;101405.09;;;13.96;63.49
67015;BME280;1033;52.560;13.374;2022-09-03T06:16:53;101403.38;;;14.14;63.22
67015;BME280;1033;52.560;13.374;2022-09-03T06:19:23;101403.75;;;14.24;62.71
67015;BME280;1033;52.560;13.374;2022-09-03T06:21:52;101403.53;;;14.46;62.31
67015;BME280;1033;52.560;13.374;2022-09-03T06:24:21;101397.94;;;14.72;60.90
67015;BME280;1033;52.560;13.374;2022-09-03T06:26:55;101406.13;;;14.72;60.92
67015;BME280;1033;52.560;13.374;2022-09-03T06:29:24;101403.06;;;14.62;61.31
67015;BME280;1033;52.560;13.374;2022-09-03T06:31:54;101399.25;;;14.63;61.64
67015;BME280;1033;52.560;13.374;2022-09-03T06:34:23;101407.19;;;14.71;61.34
67015;BME280;1033;52.560;13.374;2022-09-03T06:36:53;101400.47;;;14.73;60.72
67015;BME280;1033;52.560;13.374;2022-09-03T06:39:22;101399.50;;;14.99;60.19
67015;BME280;1033;52.560;13.374;2022-09-03T06:41:52;101400.88;;;15.15;59.61
67015;BME280;1033;52.560;13.374;2022-09-03T06:44:32;101403.22;;;15.36;59.26
67015;BME280;1033;52.560;13.374;2022-09-03T06:47:00;101409.00;;;15.46;58.48
67015;BME280;1033;52.560;13.374;2022-09-03T06:49:29;101407.63;;;15.37;58.43
67015;BME280;1033;52.560;13.374;2022-09-03T06:51:58;101412.00;;;15.07;59.04
67015;BME280;1033;52.560;13.374;2022-09-03T06:54:27;101417.06;;;15.03;59.54
67015;BME280;1033;52.560;13.374;2022-09-03T06:56:56;101412.94;;;14.94;59.71
67015;BME280;1033;52.560;13.374;2022-09-03T06:59:25;101412.13;;;14.87;59.81
67015;BME280;1033;52.560;13.374;2022-09-03T07:01:56;101417.69;;;15.05;59.43
67015;BME280;1033;52.560;13.374;2022-09-03T07:04:27;101416.09;;;15.22;59.12
67015;BME280;1033;52.560;13.374;2022-09-03T07:06:55;101422.13;;;15.31;58.80
67015;BME280;1033;52.560;13.374;2022-09-03T07:09:24;101414.69;;;15.45;58.15
67015;BME280;1033;52.560;13.374;2022-09-03T07:11:53;101410.72;;;15.72;57.79
67015;BME280;1033;52.560;13.374;2022-09-03T07:14:22;101415.25;;;15.78;57.59
67015;BME280;1033;52.560;13.374;2022-09-03T07:16:54;101408.19;;;15.95;57.04
67015;BME280;1033;52.560;13.374;2022-09-03T07:19:23;101404.19;;;16.34;56.03
67015;BME280;1033;52.560;13.374;2022-09-03T07:21:52;101402.47;;;16.40;55.83
67015;BME280;1033;52.560;13.374;2022-09-03T07:24:21;101411.44;;;16.65;55.11
67015;BME280;1033;52.560;13.374;2022-09-03T07:26:50;101409.97;;;16.63;55.06
67015;BME280;1033;52.560;13.374;2022-09-03T07:29:19;101416.94;;;16.77;54.69
67015;BME280;1033;52.560;13.374;2022-09-03T07:31:49;101418.31;;;16.68;54.87
67015;BME280;1033;52.560;13.374;2022-09-03T07:34:21;101412.34;;;17.19;53.71
67015;BME280;1033;52.560;13.374;2022-09-03T07:36:53;101418.47;;;17.32;53.37
67015;BME280;1033;52.560;13.374;2022-09-03T07:39:22;101414.16;;;17.66;52.73
67015;BME280;1033;52.560;13.374;2022-09-03T07:41:51;101416.53;;;17.74;52.25
67015;BME280;1033;52.560;13.374;2022-09-03T07:44:21;101414.72;;;18.27;50.94
67015;BME280;1033;52.560;13.374;2022-09-03T07:46:50;101417.59;;;17.97;51.14
67015;BME280;1033;52.560;13.374;2022-09-03T07:49:21;101420.50;;;17.49;51.98
67015;BME280;1033;52.560;13.374;2022-09-03T07:51:50;101418.47;;;17.32;52.44
67015;BME280;1033;52.560;13.374;2022-09-03T07:54:21;101408.16;;;17.46;52.59
67015;BME280;1033;52.560;13.374;2022-09-03T07:56:52;101409.13;;;17.63;52.39
67015;BME280;1033;52.560;13.374;2022-09-03T07:59:22;101420.69;;;17.77;52.40
67015;BME280;1033;52.560;13.374;2022-09-03T08:01:52;101419.88;;;18.00;51.34
67015;BME280;1033;52.560;13.374;2022-09-03T08:04:22;101422.97;;;17.80;51.29
67015;BME280;1033;52.560;13.374;2022-09-03T08:06:51;101418.03;;;17.47;52.29
67015;BME280;1033;52.560;13.374;2022-09-03T08:09:23;101424.69;;;17.51;52.39
67015;BME280;1033;52.560;13.374;2022-09-03T08:11:52;101411.47;;;17.48;51.92
67015;BME280;1033;52.560;13.374;2022-09-03T08:14:21;101418.75;;;17.43;52.42
67015;BME280;1033;52.560;13.374;2022-09-03T08:16:50;101417.59;;;17.73;51.97
67015;BME280;1033;52.560;13.374;2022-09-03T08:19:19;101419.66;;;17.90;51.88
67015;BME280;1033;52.560;13.374;2022-09-03T08:21:50;101425.34;;;17.88;51.85
67015;BME280;1033;52.560;13.374;2022-09-03T08:24:19;101418.91;;;18.06;50.70
67015;BME280;1033;52.560;13.374;2022-09-03T08:26:51;101427.50;;;18.09;50.70
67015;BME280;1033;52.560;13.374;2022-09-03T08:29:21;101417.38;;;18.21;50.31
67015;BME280;1033;52.560;13.374;2022-09-03T08:31:50;101420.09;;;18.33;49.67
67015;BME280;1033;52.560;13.374;2022-09-03T08:34:20;101423.16;;;18.48;49.97
67015;BME280;1033;52.560;13.374;2022-09-03T08:36:50;101420.78;;;18.40;49.51
67015;BME280;1033;52.560;13.374;2022-09-03T08:39:20;101422.09;;;18.61;48.94
67015;BME280;1033;52.560;13.374;2022-09-03T08:42:16;101413.34;;;18.76;49.40
67015;BME280;1033;52.560;13.374;2022-09-03T08:44:52;101410.28;;;18.60;49.42
67015;BME280;1033;52.560;13.374;2022-09-03T08:47:28;101407.44;;;18.55;49.39
67015;BME280;1033;52.560;13.374;2022-09-03T08:50:03;101395.28;;;18.63;49.43
67015;BME280;1033;52.560;13.374;2022-09-03T08:52:46;101402.22;;;18.42;50.16
67015;BME280;1033;52.560;13.374;2022-09-03T08:55:23;101403.06;;;18.31;49.95
67015;BME280;1033;52.560;13.374;2022-09-03T08:58:00;101412.16;;;18.20;50.20
67015;BME280;1033;52.560;13.374;2022-09-03T09:00:46;101401.53;;;18.23;50.12
67015;BME280;1033;52.560;13.374;2022-09-03T09:03:47;101395.53;;;18.38;50.17
67015;BME280;1033;52.560;13.374;2022-09-03T09:06:28;101396.94;;;18.52;49.76
67015;BME280;1033;52.560;13.374;2022-09-03T09:09:10;101393.59;;;18.50;50.32
67015;BME280;1033;52.560;13.374;2022-09-03T09:11:57;101394.38;;;18.74;50.27
67015;BME280;1033;52.560;13.374;2022-09-03T09:14:35;101390.78;;;18.85;50.02
67015;BME280;1033;52.560;13.374;2022-09-03T09:17:28;101393.31;;;19.03;47.87
67015;BME280;1033;52.560;13.374;2022-09-03T09:20:09;101388.53;;;19.27;46.71
67015;BME280;1033;52.560;13.374;2022-09-03T09:22:45;101389.72;;;19.31;47.04
67015;BME280;1033;52.560;13.374;2022-09-03T09:25:21;101391.53;;;19.42;47.30
67015;BME280;1033;52.560;13.374;2022-09-03T09:27:57;101383.59;;;19.58;46.99
67015;BME280;1033;52.560;13.374;2022-09-03T09:30:28;101383.72;;;20.01;45.67
67015;BME280;1033;52.560;13.374;2022-09-03T09:32:59;101379.81;;;19.80;45.33
67015;BME280;1033;52.560;13.374;2022-09-03T09:35:28;101372.56;;;19.91;45.17
67015;BME280;1033;52.560;13.374;2022-09-03T09:37:58;101372.78;;;19.84;45.34
67015;BME280;1033;52.560;13.374;2022-09-03T09:40:34;101365.78;;;19.77;45.56
67015;BME280;1033;52.560;13.374;2022-09-03T09:43:14;101363.47;;;20.07;44.57
67015;BME280;1033;52.560;13.374;2022-09-03T09:45:46;101358.25;;;20.27;43.83
67015;BME280;1033;52.560;13.374;2022-09-03T09:48:22;101363.69;;;20.22;43.97
67015;BME280;1033;52.560;13.374;2022-09-03T09:51:06;101354.38;;;20.23;43.89
67015;BME280;1033;52.560;13.374;2022-09-03T09:53:37;101361.28;;;20.48;43.82
67015;BME280;1033;52.560;13.374;2022-09-03T09:56:19;101359.41;;;20.75;42.21
67015;BME280;1033;52.560;13.374;2022-09-03T09:58:48;101363.00;;;20.75;41.89
67015;BME280;1033;52.560;13.374;2022-09-03T10:01:22;101362.81;;;20.60;41.82
67015;BME280;1033;52.560;13.374;2022-09-03T10:03:56;101368.25;;;20.55;41.69
67015;BME280;1033;52.560;13.374;2022-09-03T10:06:27;101365.88;;;20.64;40.69
67015;BME280;1033;52.560;13.374;2022-09-03T10:09:17;101362.03;;;20.65;40.97
67015;BME280;1033;52.560;13.374;2022-09-03T10:11:53;101368.38;;;20.65;41.10
67015;BME280;1033;52.560;13.374;2022-09-03T10:14:29;101353.13;;;20.79;39.75
67015;BME280;1033;52.560;13.374;2022-09-03T10:17:12;101348.66;;;21.00;39.46
67015;BME280;1033;52.560;13.374;2022-09-03T10:19:56;101348.88;;;21.20;38.29
67015;BME280;1033;52.560;13.374;2022-09-03T10:22:53;101335.09;;;21.52;38.22
67015;BME280;1033;52.560;13.374;2022-09-03T10:25:29;101330.69;;;21.51;37.61
67015;BME280;1033;52.560;13.374;2022-09-03T10:28:05;101343.94;;;21.22;36.86
67015;BME280;1033;52.560;13.374;2022-09-03T10:31:09;101333.03;;;21.33;37.56
67015;BME280;1033;52.560;13.374;2022-09-03T10:33:48;101339.13;;;21.40;36.75
67015;BME280;1033;52.560;13.374;2022-09-03T10:36:30;101343.69;;;21.24;37.39
67015;BME280;1033;52.560;13.374;2022-09-03T10:39:12;101330.69;;;21.14;37.60
67015;BME280;1033;52.560;13.374;2022-09-03T10:42:07;101332.50;;;21.36;37.05
67015;BME280;1033;52.560;13.374;2022-09-03T10:45:01;101332.53;;;21.41;37.02
67015;BME280;1033;52.560;13.374;2022-09-03T10:50:47;101335.78;;;21.33;36.46
67015;BME280;1033;52.560;13.374;2022-09-03T10:53:48;101323.59;;;21.23;37.16
67015;BME280;1033;52.560;13.374;2022-09-03T10:56:31;101319.75;;;21.24;37.06
67015;BME280;1033;52.560;13.374;2022-09-03T10:59:19;101315.59;;;21.22;36.88
67015;BME280;1033;52.560;13.374;2022-09-03T11:02:14;101318.41;;;21.69;36.58
67015;BME280;1033;52.560;13.374;2022-09-03T11:04:57;101320.31;;;21.63;36.71
67015;BME280;1033;52.560;13.374;2022-09-03T11:07:38;101310.38;;;21.57;36.64
67015;BME280;1033;52.560;13.374;2022-09-03T11:10:19;101308.84;;;21.77;36.90
67015;BME280;1033;52.560;13.374;2022-09-03T11:13:09;101306.91;;;21.77;37.14
67015;BME280;1033;52.560;13.374;2022-09-03T11:15:50;101300.41;;;21.93;36.90
67015;BME280;1033;52.560;13.374;2022-09-03T11:18:26;101299.50;;;22.35;37.22
67015;BME280;1033;52.560;13.374;2022-09-03T11:21:00;101299.63;;;22.80;35.63
67015;BME280;1033;52.560;13.374;2022-09-03T11:23:41;101301.84;;;22.78;36.03
67015;BME280;1033;52.560;13.374;2022-09-03T11:26:14;101305.56;;;22.42;36.30
67015;BME280;1033;52.560;13.374;2022-09-03T11:28:54;101307.38;;;22.83;35.39
67015;BME280;1033;52.560;13.374;2022-09-03T11:31:37;101297.19;;;22.99;34.99
67015;BME280;1033;52.560;13.374;2022-09-03T11:34:30;101297.47;;;23.38;34.31
67015;BME280;1033;52.560;13.374;2022-09-03T11:37:20;101290.84;;;23.14;34.61
67015;BME280;1033;52.560;13.374;2022-09-03T11:39:56;101295.25;;;23.15;35.00
67015;BME280;1033;52.560;13.374;2022-09-03T11:42:30;101285.03;;;23.00;34.61
67015;BME280;1033;52.560;13.374;2022-09-03T11:45:22;101285.31;;;23.04;34.39
67015;BME280;1033;52.560;13.374;2022-09-03T11:47:52;101287.25;;;23.08;34.18
67015;BME280;1033;52.560;13.374;2022-09-03T11:50:25;101276.47;;;23.02;34.24
67015;BME280;1033;52.560;13.374;2022-09-03T11:53:24;101278.38;;;22.91;34.74
67015;BME280;1033;52.560;13.374;2022-09-03T11:56:00;101280.84;;;22.72;35.27
67015;BME280;1033;52.560;13.374;2022-09-03T11:58:46;101273.03;;;22.39;35.25
67015;BME280;1033;52.560;13.374;2022-09-03T12:01:17;101277.41;;;22.25;36.28
67015;BME280;1033;52.560;13.374;2022-09-03T12:03:51;101275.25;;;22.47;35.83
67015;BME280;1033;52.560;13.374;2022-09-03T12:06:54;101267.09;;;22.98;35.59
67015;BME280;1033;52.560;13.374;2022-09-03T12:12:59;101258.25;;;23.21;34.69
67015;BME280;1033;52.560;13.374;2022-09-03T12:18:42;101268.09;;;22.46;36.16
67015;BME280;1033;52.560;13.374;2022-09-03T12:21:12;101261.13;;;22.28;36.47
67015;BME280;1033;52.560;13.374;2022-09-03T12:23:48;101258.56;;;21.96;36.27
67015;BME280;1033;52.560;13.374;2022-09-03T12:26:25;101259.56;;;21.85;36.78
67015;BME280;1033;52.560;13.374;2022-09-03T12:28:57;101256.94;;;22.05;36.82
67015;BME280;1033;52.560;13.374;2022-09-03T12:31:29;101255.78;;;21.96;35.79
67015;BME280;1033;52.560;13.374;2022-09-03T12:34:01;101253.31;;;22.00;35.81
67015;BME280;1033;52.560;13.374;2022-09-03T12:36:38;101246.63;;;22.68;34.77
67015;BME280;1033;52.560;13.374;2022-09-03T12:39:16;101247.75;;;23.33;34.08
67015;BME280;1033;52.560;13.374;2022-09-03T12:42:11;101240.03;;;23.20;33.48
67015;BME280;1033;52.560;13.374;2022-09-03T12:44:43;101237.81;;;22.81;33.39
67015;BME280;1033;52.560;13.374;2022-09-03T12:47:14;101230.13;;;22.93;33.80
67015;BME280;1033;52.560;13.374;2022-09-03T12:50:08;101226.22;;;22.69;33.44
67015;BME280;1033;52.560;13.374;2022-09-03T12:52:40;101228.44;;;23.03;33.09
67015;BME280;1033;52.560;13.374;2022-09-03T12:55:28;101225.38;;;23.34;32.42
67015;BME280;1033;52.560;13.374;2022-09-03T12:58:07;101221.78;;;23.29;32.39
67015;BME280;1033;52.560;13.374;2022-09-03T13:00:44;101232.31;;;23.07;32.65
67015;BME280;1033;52.560;13.374;2022-09-03T13:03:19;101227.88;;;23.01;32.51
67015;BME280;1033;52.560;13.374;2022-09-03T13:05:54;101219.03;;;23.24;32.45
67015;BME280;1033;52.560;13.374;2022-09-03T13:08:28;101220.13;;;23.48;32.07
67015;BME280;1033;52.560;13.374;2022-09-03T13:11:03;101220.69;;;23.30;32.57
67015;BME280;1033;52.560;13.374;2022-09-03T13:13:35;101218.50;;;23.07;33.16
67015;BME280;1033;52.560;13.374;2022-09-03T13:16:40;101213.56;;;22.78;33.73
67015;BME280;1033;52.560;13.374;2022-09-03T13:19:21;101224.47;;;22.33;34.05
67015;BME280;1033;52.560;13.374;2022-09-03T13:22:04;101205.72;;;22.25;33.77
67015;BME280;1033;52.560;13.374;2022-09-03T13:24:56;101204.69;;;22.46;33.77
67015;BME280;1033;52.560;13.374;2022-09-03T13:27:36;101214.66;;;22.87;33.48
67015;BME280;1033;52.560;13.374;2022-09-03T13:30:10;101204.38;;;23.49;32.58
67015;BME280;1033;52.560;13.374;2022-09-03T13:32:55;101210.34;;;23.86;32.75
67015;BME280;1033;52.560;13.374;2022-09-03T13:35:35;101204.50;;;23.93;31.89
67015;BME280;1033;52.560;13.374;2022-09-03T13:38:20;101192.94;;;23.86;31.97
67015;BME280;1033;52.560;13.374;2022-09-03T13:40:58;101188.38;;;24.10;31.71
67015;BME280;1033;52.560;13.374;2022-09-03T13:43:37;101194.53;;;23.92;32.47
67015;BME280;1033;52.560;13.374;2022-09-03T13:46:16;101200.13;;;23.87;32.02
67015;BME280;1033;52.560;13.374;2022-09-03T13:48:56;101203.00;;;23.46;32.46